Time,TemperatureF,DewpointF,PressureIn,WindDirection,WindDirectionDegrees,WindSpeedMPH,WindSpeedGustMPH,Humidity,HourlyPrecipIn,Conditions,Clouds,dailyrainin,SoftwareType,DateUTC
2013-03-25 00:01:00,25.0,23.0,30.30,East,87,0.0,-999.0,91,-99.99,,,-99.99,,2013-03-25 07:01:00,
2013-03-25 00:12:00,25.0,23.0,30.30,East,87,0.0,-999.0,91,-99.99,,,-99.99,,2013-03-25 07:12:00,
2013-03-25 00:21:00,25.0,23.0,30.30,East,87,0.0,-999.0,91,-99.99,,,-99.99,,2013-03-25 07:21:00,
2013-03-25 00:31:00,25.0,23.0,30.30,East,87,0.0,-999.0,92,-99.99,,,-99.99,,2013-03-25 07:31:00,
2013-03-25 00:42:00,25.0,23.0,30.30,East,87,0.0,-999.0,92,-99.99,,,-99.99,,2013-03-25 07:42:00,
2013-03-25 00:52:00,25.0,23.0,30.29,East,87,0.0,-999.0,92,-99.99,,,-99.99,,2013-03-25 07:52:00,
2013-03-25 01:02:00,24.0,22.0,30.29,East,87,0.0,-999.0,92,-99.99,,,-99.99,,2013-03-25 08:02:00,
2013-03-25 01:11:00,24.0,22.0,30.29,East,87,0.0,-999.0,92,-99.99,,,-99.99,,2013-03-25 08:11:00,
2013-03-25 01:22:00,23.0,21.0,30.29,East,87,0.0,-999.0,92,-99.99,,,-99.99,,2013-03-25 08:22:00,
2013-03-25 01:31:00,23.0,21.0,30.29,East,87,0.0,-999.0,92,-99.99,,,-99.99,,2013-03-25 08:31:00,
2013-03-25 01:42:00,23.0,21.0,30.29,East,87,0.0,-999.0,92,-99.99,,,-99.99,,2013-03-25 08:42:00,
2013-03-25 01:52:00,23.0,21.0,30.29,East,87,0.0,-999.0,92,-99.99,,,-99.99,,2013-03-25 08:52:00,
2013-03-25 02:02:00,23.0,21.0,30.29,East,87,0.0,-999.0,92,-99.99,,,-99.99,,2013-03-25 09:02:00,
2013-03-25 02:11:00,23.0,21.0,30.29,East,87,0.0,-999.0,92,-99.99,,,-99.99,,2013-03-25 09:11:00,
2013-03-25 02:22:00,23.0,21.0,30.29,East,87,0.0,-999.0,92,-99.99,,,-99.99,,2013-03-25 09:22:00,
2013-03-25 02:32:00,23.0,21.0,30.29,East,87,0.0,-999.0,92,-99.99,,,-99.99,,2013-03-25 09:32:00,
2013-03-25 02:42:00,23.0,21.0,30.29,East,87,0.0,-999.0,92,-99.99,,,-99.99,,2013-03-25 09:42:00,
2013-03-25 02:52:00,23.0,21.0,30.28,East,87,0.0,-999.0,92,-99.99,,,-99.99,,2013-03-25 09:52:00,
2013-03-25 03:02:00,22.0,20.0,30.28,East,87,0.0,-999.0,92,-99.99,,,-99.99,,2013-03-25 10:02:00,
2013-03-25 03:12:00,22.0,20.0,30.28,East,87,0.0,-999.0,92,-99.99,,,-99.99,,2013-03-25 10:12:00,
2013-03-25 03:22:00,22.0,20.0,30.28,East,87,0.0,-999.0,92,-99.99,,,-99.99,,2013-03-25 10:22:00,
2013-03-25 03:32:00,22.0,20.0,30.28,East,87,0.0,-999.0,92,-99.99,,,-99.99,,2013-03-25 10:32:00,
2013-03-25 03:42:00,22.0,20.0,30.28,East,87,0.0,-999.0,92,-99.99,,,-99.99,,2013-03-25 10:42:00,
2013-03-25 03:53:00,22.0,20.0,30.27,East,87,0.0,-999.0,92,-99.99,,,-99.99,,2013-03-25 10:53:00,
2013-03-25 04:02:00,22.0,20.0,30.27,East,87,0.0,-999.0,92,-99.99,,,-99.99,,2013-03-25 11:02:00,
2013-03-25 04:12:00,22.0,20.0,30.27,East,87,0.0,-999.0,92,-99.99,,,-99.99,,2013-03-25 11:12:00,
2013-03-25 04:22:00,21.0,19.0,30.27,East,87,0.0,-999.0,92,-99.99,,,-99.99,,2013-03-25 11:22:00,
2013-03-25 04:31:00,21.0,19.0,30.28,East,87,0.0,-999.0,92,-99.99,,,-99.99,,2013-03-25 11:31:00,
2013-03-25 04:42:00,21.0,19.0,30.28,East,87,0.0,-999.0,92,-99.99,,,-99.99,,2013-03-25 11:42:00,
2013-03-25 04:52:00,21.0,19.0,30.28,East,87,0.0,-999.0,92,-99.99,,,-99.99,,2013-03-25 11:52:00,
2013-03-25 05:02:00,21.0,19.0,30.28,East,87,0.0,-999.0,92,-99.99,,,-99.99,,2013-03-25 12:02:00,
2013-03-25 05:12:00,21.0,19.0,30.28,East,87,0.0,-999.0,92,-99.99,,,-99.99,,2013-03-25 12:12:00,
2013-03-25 05:22:00,21.0,19.0,30.27,East,87,0.0,-999.0,92,-99.99,,,-99.99,,2013-03-25 12:22:00,
2013-03-25 05:32:00,21.0,19.0,30.27,East,87,0.0,-999.0,92,-99.99,,,-99.99,,2013-03-25 12:32:00,
2013-03-25 05:42:00,21.0,19.0,30.27,East,87,0.0,-999.0,92,-99.99,,,-99.99,,2013-03-25 12:42:00,
2013-03-25 05:53:00,21.0,19.0,30.27,East,87,0.0,-999.0,92,-99.99,,,-99.99,,2013-03-25 12:53:00,
2013-03-25 06:02:00,21.0,19.0,30.27,East,87,0.0,-999.0,92,-99.99,,,-99.99,,2013-03-25 13:02:00,
2013-03-25 06:11:00,21.0,19.0,30.27,East,87,0.0,-999.0,92,-99.99,,,-99.99,,2013-03-25 13:11:00,
2013-03-25 06:22:00,20.0,18.0,30.27,East,87,0.0,-999.0,92,-99.99,,,-99.99,,2013-03-25 13:22:00,
2013-03-25 06:31:00,20.0,18.0,30.27,East,87,0.0,-999.0,92,-99.99,,,-99.99,,2013-03-25 13:31:00,
2013-03-25 06:52:00,20.0,18.0,30.27,East,87,0.0,-999.0,92,-99.99,,,-99.99,,2013-03-25 13:52:00,
2013-03-25 07:02:00,20.0,18.0,30.27,East,87,0.0,-999.0,92,-99.99,,,-99.99,,2013-03-25 14:02:00,
2013-03-25 07:12:00,20.0,18.0,30.27,East,87,0.0,-999.0,92,-99.99,,,-99.99,,2013-03-25 14:12:00,
2013-03-25 07:22:00,20.0,18.0,30.27,East,87,0.0,-999.0,92,-99.99,,,-99.99,,2013-03-25 14:22:00,
2013-03-25 07:32:00,21.0,19.0,30.27,East,87,0.0,-999.0,93,-99.99,,,-99.99,,2013-03-25 14:32:00,
2013-03-25 07:42:00,21.0,19.0,30.27,East,87,0.0,-999.0,93,-99.99,,,-99.99,,2013-03-25 14:42:00,
2013-03-25 07:52:00,22.0,20.0,30.27,East,87,0.0,-999.0,92,-99.99,,,-99.99,,2013-03-25 14:52:00,
2013-03-25 08:01:00,23.0,21.0,30.27,East,87,0.0,-999.0,92,-99.99,,,-99.99,,2013-03-25 15:01:00,
2013-03-25 08:12:00,23.0,21.0,30.27,East,87,0.0,-999.0,92,-99.99,,,-99.99,,2013-03-25 15:12:00,
2013-03-25 08:22:00,23.0,21.0,30.27,East,87,0.0,-999.0,92,-99.99,,,-99.99,,2013-03-25 15:22:00,
2013-03-25 08:32:00,27.0,23.0,30.27,East,87,0.0,-999.0,85,-99.99,,,-99.99,,2013-03-25 15:32:00,
2013-03-25 08:42:00,27.0,23.0,30.27,East,87,0.0,-999.0,85,-99.99,,,-99.99,,2013-03-25 15:42:00,
2013-03-25 08:53:00,29.0,24.0,30.27,East,87,0.0,-999.0,82,-99.99,,,-99.99,,2013-03-25 15:53:00,
2013-03-25 09:02:00,30.0,23.0,30.26,East,87,0.0,-999.0,76,-99.99,,,-99.99,,2013-03-25 16:02:00,
2013-03-25 09:12:00,30.0,23.0,30.26,East,87,0.0,-999.0,76,-99.99,,,-99.99,,2013-03-25 16:12:00,
2013-03-25 09:22:00,30.0,23.0,30.26,East,87,0.0,-999.0,76,-99.99,,,-99.99,,2013-03-25 16:22:00,
2013-03-25 09:32:00,35.0,25.0,30.26,East,87,0.0,-999.0,66,-99.99,,,-99.99,,2013-03-25 16:32:00,
2013-03-25 09:42:00,35.0,25.0,30.26,East,87,0.0,-999.0,66,-99.99,,,-99.99,,2013-03-25 16:42:00,
2013-03-25 09:52:00,36.0,25.0,30.26,ESE,102,0.0,-999.0,64,-99.99,,,-99.99,,2013-03-25 16:52:00,
2013-03-25 10:02:00,37.0,25.0,30.26,SE,127,1.0,-999.0,62,-99.99,,,-99.99,,2013-03-25 17:02:00,
2013-03-25 10:31:00,39.0,25.0,30.25,SSE,167,3.0,-999.0,56,-99.99,,,-99.99,,2013-03-25 17:31:00,
2013-03-25 10:42:00,39.0,25.0,30.25,SSE,167,3.0,-999.0,56,-99.99,,,-99.99,,2013-03-25 17:42:00,
2013-03-25 10:52:00,41.0,26.0,30.25,South,171,3.0,-999.0,54,-99.99,,,-99.99,,2013-03-25 17:52:00,
2013-03-25 11:02:00,40.0,23.0,30.25,SSE,160,4.0,-999.0,50,-99.99,,,-99.99,,2013-03-25 18:02:00,
2013-03-25 11:12:00,40.0,23.0,30.25,SSE,160,4.0,-999.0,50,-99.99,,,-99.99,,2013-03-25 18:12:00,
2013-03-25 11:22:00,41.0,23.0,30.25,SE,133,2.0,-999.0,49,-99.99,,,-99.99,,2013-03-25 18:22:00,
2013-03-25 11:31:00,42.0,23.0,30.25,ENE,69,2.0,-999.0,47,-99.99,,,-99.99,,2013-03-25 18:31:00,
2013-03-25 11:42:00,42.0,23.0,30.25,ENE,69,2.0,-999.0,47,-99.99,,,-99.99,,2013-03-25 18:42:00,
2013-03-25 11:52:00,42.0,24.0,30.24,East,92,2.0,-999.0,48,-99.99,,,-99.99,,2013-03-25 18:52:00,
2013-03-25 12:02:00,44.0,25.0,30.24,South,181,1.0,-999.0,46,-99.99,,,-99.99,,2013-03-25 19:02:00,
2013-03-25 12:12:00,44.0,25.0,30.24,South,181,1.0,-999.0,46,-99.99,,,-99.99,,2013-03-25 19:12:00,
2013-03-25 12:21:00,45.0,25.0,30.23,South,173,2.0,-999.0,45,-99.99,,,-99.99,,2013-03-25 19:21:00,
2013-03-25 12:32:00,45.0,24.0,30.22,South,186,2.0,-999.0,44,-99.99,,,-99.99,,2013-03-25 19:32:00,
2013-03-25 12:42:00,45.0,24.0,30.22,South,186,2.0,-999.0,44,-99.99,,,-99.99,,2013-03-25 19:42:00,
2013-03-25 12:52:00,44.0,22.0,30.22,South,170,4.0,-999.0,42,-99.99,,,-99.99,,2013-03-25 19:52:00,
2013-03-25 13:01:00,45.0,22.0,30.21,WNW,284,2.0,-999.0,39,-99.99,,,-99.99,,2013-03-25 20:01:00,
2013-03-25 13:12:00,45.0,22.0,30.21,WNW,284,2.0,-999.0,39,-99.99,,,-99.99,,2013-03-25 20:12:00,
2013-03-25 13:22:00,46.0,22.0,30.21,South,184,3.0,-999.0,39,-99.99,,,-99.99,,2013-03-25 20:22:00,
2013-03-25 13:32:00,47.0,21.0,30.20,SSE,157,2.0,-999.0,36,-99.99,,,-99.99,,2013-03-25 20:32:00,
2013-03-25 13:42:00,47.0,21.0,30.20,SSE,157,2.0,-999.0,36,-99.99,,,-99.99,,2013-03-25 20:42:00,
2013-03-25 13:52:00,47.0,22.0,30.19,SSW,194,1.0,-999.0,37,-99.99,,,-99.99,,2013-03-25 20:52:00,
2013-03-25 14:02:00,46.0,22.0,30.18,SSW,203,3.0,-999.0,38,-99.99,,,-99.99,,2013-03-25 21:02:00,
2013-03-25 14:11:00,46.0,22.0,30.18,SSW,203,3.0,-999.0,38,-99.99,,,-99.99,,2013-03-25 21:11:00,
2013-03-25 14:22:00,48.0,25.0,30.17,West,279,2.0,-999.0,40,-99.99,,,-99.99,,2013-03-25 21:22:00,
2013-03-25 14:32:00,48.0,22.0,30.17,South,174,2.0,-999.0,36,-99.99,,,-99.99,,2013-03-25 21:32:00,
2013-03-25 14:42:00,48.0,22.0,30.17,South,174,2.0,-999.0,36,-99.99,,,-99.99,,2013-03-25 21:42:00,
2013-03-25 14:52:00,48.0,22.0,30.16,SSE,163,2.0,-999.0,36,-99.99,,,-99.99,,2013-03-25 21:52:00,
2013-03-25 15:02:00,48.0,22.0,30.16,East,80,0.0,-999.0,35,-99.99,,,-99.99,,2013-03-25 22:02:00,
2013-03-25 15:12:00,48.0,22.0,30.16,East,80,0.0,-999.0,35,-99.99,,,-99.99,,2013-03-25 22:12:00,
2013-03-25 15:22:00,49.0,25.0,30.15,SW,217,2.0,-999.0,38,-99.99,,,-99.99,,2013-03-25 22:22:00,
2013-03-25 15:32:00,49.0,24.0,30.15,NNE,32,1.0,-999.0,37,-99.99,,,-99.99,,2013-03-25 22:32:00,
2013-03-25 15:42:00,49.0,24.0,30.15,NNE,32,1.0,-999.0,37,-99.99,,,-99.99,,2013-03-25 22:42:00,
2013-03-25 15:52:00,48.0,23.0,30.14,East,82,1.0,-999.0,37,-99.99,,,-99.99,,2013-03-25 22:52:00,
2013-03-25 16:02:00,48.0,25.0,30.14,ENE,75,1.0,-999.0,41,-99.99,,,-99.99,,2013-03-25 23:02:00,
2013-03-25 16:11:00,48.0,25.0,30.14,ENE,75,1.0,-999.0,41,-99.99,,,-99.99,,2013-03-25 23:11:00,
2013-03-25 16:22:00,49.0,25.0,30.13,East,92,1.0,-999.0,38,-99.99,,,-99.99,,2013-03-25 23:22:00,
2013-03-25 16:31:00,48.0,24.0,30.13,East,87,1.0,-999.0,38,-99.99,,,-99.99,,2013-03-25 23:31:00,
2013-03-25 16:42:00,48.0,24.0,30.13,East,87,1.0,-999.0,38,-99.99,,,-99.99,,2013-03-25 23:42:00,
2013-03-25 16:52:00,48.0,24.0,30.13,East,88,0.0,-999.0,39,-99.99,,,-99.99,,2013-03-25 23:52:00,
2013-03-25 17:02:00,48.0,24.0,30.12,East,88,0.0,-999.0,38,-99.99,,,-99.99,,2013-03-26 00:02:00,
2013-03-25 17:11:00,48.0,24.0,30.12,East,88,0.0,-999.0,38,-99.99,,,-99.99,,2013-03-26 00:11:00,
2013-03-25 17:22:00,48.0,26.0,30.12,SSE,159,0.0,-999.0,42,-99.99,,,-99.99,,2013-03-26 00:22:00,
2013-03-25 17:31:00,48.0,25.0,30.11,SSE,150,0.0,-999.0,41,-99.99,,,-99.99,,2013-03-26 00:31:00,
2013-03-25 17:42:00,48.0,25.0,30.11,SSE,150,0.0,-999.0,41,-99.99,,,-99.99,,2013-03-26 00:42:00,
2013-03-25 17:52:00,48.0,26.0,30.11,SSE,161,1.0,-999.0,42,-99.99,,,-99.99,,2013-03-26 00:52:00,
2013-03-25 18:02:00,48.0,25.0,30.11,SSE,161,0.0,-999.0,41,-99.99,,,-99.99,,2013-03-26 01:02:00,
2013-03-25 18:11:00,48.0,25.0,30.11,SSE,161,0.0,-999.0,41,-99.99,,,-99.99,,2013-03-26 01:11:00,
2013-03-25 18:22:00,48.0,27.0,30.10,SSE,161,0.0,-999.0,43,-99.99,,,-99.99,,2013-03-26 01:22:00,
2013-03-25 18:32:00,47.0,28.0,30.10,SSE,161,0.0,-999.0,48,-99.99,,,-99.99,,2013-03-26 01:32:00,
2013-03-25 18:41:00,47.0,28.0,30.10,SSE,161,0.0,-999.0,48,-99.99,,,-99.99,,2013-03-26 01:41:00,
2013-03-25 18:52:00,47.0,29.0,30.09,SSE,161,0.0,-999.0,50,-99.99,,,-99.99,,2013-03-26 01:52:00,
2013-03-25 19:01:00,46.0,32.0,30.09,SSE,161,0.0,-999.0,57,-99.99,,,-99.99,,2013-03-26 02:01:00,
2013-03-25 19:11:00,46.0,32.0,30.09,SSE,161,0.0,-999.0,57,-99.99,,,-99.99,,2013-03-26 02:11:00,
2013-03-25 19:22:00,44.0,28.0,30.09,SSE,161,0.0,-999.0,52,-99.99,,,-99.99,,2013-03-26 02:22:00,
2013-03-25 19:31:00,43.0,32.0,30.09,SSE,161,0.0,-999.0,65,-99.99,,,-99.99,,2013-03-26 02:31:00,
2013-03-25 19:42:00,43.0,32.0,30.09,SSE,161,0.0,-999.0,65,-99.99,,,-99.99,,2013-03-26 02:42:00,
2013-03-25 19:52:00,42.0,32.0,30.09,SSE,161,0.0,-999.0,67,-99.99,,,-99.99,,2013-03-26 02:52:00,
2013-03-25 20:01:00,41.0,32.0,30.08,SSE,161,0.0,-999.0,69,-99.99,,,-99.99,,2013-03-26 03:01:00,
2013-03-25 20:11:00,41.0,32.0,30.08,SSE,161,0.0,-999.0,69,-99.99,,,-99.99,,2013-03-26 03:11:00,
2013-03-25 20:22:00,40.0,31.0,30.08,SSE,161,0.0,-999.0,70,-99.99,,,-99.99,,2013-03-26 03:22:00,
2013-03-25 20:33:00,39.0,31.0,30.08,SSE,161,0.0,-999.0,72,-99.99,,,-99.99,,2013-03-26 03:33:00,
2013-03-25 20:42:00,39.0,31.0,30.08,SSE,161,0.0,-999.0,72,-99.99,,,-99.99,,2013-03-26 03:42:00,
2013-03-25 20:53:00,38.0,30.0,30.08,SSE,161,0.0,-999.0,73,-99.99,,,-99.99,,2013-03-26 03:53:00,
2013-03-25 21:03:00,37.0,29.0,30.08,SSE,161,0.0,-999.0,74,-99.99,,,-99.99,,2013-03-26 04:03:00,
2013-03-25 21:12:00,37.0,29.0,30.08,SSE,161,0.0,-999.0,74,-99.99,,,-99.99,,2013-03-26 04:12:00,
2013-03-25 21:22:00,37.0,30.0,30.08,SSE,161,0.0,-999.0,76,-99.99,,,-99.99,,2013-03-26 04:22:00,
2013-03-25 21:32:00,37.0,30.0,30.08,SSE,161,0.0,-999.0,76,-99.99,,,-99.99,,2013-03-26 04:32:00,
2013-03-25 21:42:00,37.0,30.0,30.08,SSE,161,0.0,-999.0,76,-99.99,,,-99.99,,2013-03-26 04:42:00,
2013-03-25 21:52:00,36.0,29.0,30.08,SSE,161,0.0,-999.0,77,-99.99,,,-99.99,,2013-03-26 04:52:00,
2013-03-25 22:02:00,36.0,30.0,30.08,SSE,161,0.0,-999.0,78,-99.99,,,-99.99,,2013-03-26 05:02:00,
2013-03-25 22:11:00,36.0,30.0,30.08,SSE,161,0.0,-999.0,78,-99.99,,,-99.99,,2013-03-26 05:11:00,
2013-03-25 22:22:00,36.0,30.0,30.08,SSE,161,0.0,-999.0,78,-99.99,,,-99.99,,2013-03-26 05:22:00,
2013-03-25 22:32:00,35.0,29.0,30.08,SSE,161,0.0,-999.0,80,-99.99,,,-99.99,,2013-03-26 05:32:00,
2013-03-25 22:42:00,35.0,29.0,30.08,SSE,161,0.0,-999.0,80,-99.99,,,-99.99,,2013-03-26 05:42:00,
2013-03-25 22:52:00,35.0,30.0,30.08,SSE,161,0.0,-999.0,81,-99.99,,,-99.99,,2013-03-26 05:52:00,
2013-03-25 23:01:00,35.0,30.0,30.08,SSE,161,0.0,-999.0,81,-99.99,,,-99.99,,2013-03-26 06:01:00,
2013-03-25 23:12:00,35.0,30.0,30.08,SSE,161,0.0,-999.0,81,-99.99,,,-99.99,,2013-03-26 06:12:00,
2013-03-25 23:21:00,35.0,30.0,30.08,SSE,161,0.0,-999.0,81,-99.99,,,-99.99,,2013-03-26 06:21:00,
2013-03-25 23:31:00,35.0,30.0,30.07,SSE,161,0.0,-999.0,82,-99.99,,,-99.99,,2013-03-26 06:31:00,
2013-03-25 23:42:00,35.0,30.0,30.07,SSE,161,0.0,-999.0,82,-99.99,,,-99.99,,2013-03-26 06:42:00,
2013-03-25 23:52:00,35.0,30.0,30.07,SSE,161,0.0,-999.0,82,-99.99,,,-99.99,,2013-03-26 06:52:00,